Lexington, NC

8:14 PM EDT on April 25, 2015 (GMT -0400)
RAWS | | Change Station
CLOSE
Current Station
Personal Weather Station
Location: Lexington, NC
Elevation: 750 ft
Nearby Weather Stations

Elev 750 ft 35.79 °N, 80.31 °W | Updated 58 minutes ago

Fog
Fog
49 °F
Feels Like 46 °F
N
6
Wind Variable Wind from NNE
Gusts 13.0 mph

Today
High -- | Low -- °F
--% Chance of Precip.
Yesterday
High -- | Low -- °F
Precip. -- in
6:35 AM 8:02 PM
Waxing Crescent, 50% visible
Pressure 29.64 in
Visibility 3.0 miles
Clouds Overcast 300 ft
Windchill 46 °F
Dew Point 49 °F
Humidity 99%
Rainfall in
Snow Depth Not available.
UV 0 out of 12
Pollen 7.00 out of 12
Air Quality Not available.
Flu Activity Sporadic
METAR KEXX 252355Z AUTO 03005KT 3SM BR OVC003 09/09 A2964 RMK AO2 60003 T00930090 10136 20093

More Conditions Fewer Conditions

Pressure 29.64 in
Visibility 3.0 miles
Clouds Overcast 300 ft
Windchill 46 °F
Dew Point 49 °F
Humidity 99%
Rainfall in
Snow Depth Not available.
UV 0 out of 12
Pollen 7.00 out of 12
Air Quality Not available.
Flu Activity Sporadic
METAR KEXX 252355Z AUTO 03005KT 3SM BR OVC003 09/09 A2964 RMK AO2 60003 T00930090 10136 20093

More Conditions Fewer Conditions

10-Day Weather Forecast

Almanac

Astronomy

Apr. 25, 2015 Rise Set
Actual Time
Civil Twilight
Nautical Twilight
Astronomical Twilight
Moon
Length of Visible Light
Length of Day
Tomorrow will be .
, % of the Moon is Illuminated

Today's Extremes

State Highs State Lows

Community

WunderPhotos

Upload Photos

1,816,855 photos uploaded!

WunderBlogs® & News

Nearby

Air Quality

  Air Quality AQ Index Pollutant
Not available.

Snow Depth

Station Depth Elevation

Earthquake Activity

City Distance Mag. Time & Date
Minimum magnitude displayed is 2.5.

Coastal Water Temperatures

Place Temperature

Stations

Nearby Weather Stations

Station Location Temp. Windchill Dew Point Humidity Wind Precip. Elev Updated Type